Aérodrome :
LOGIN :

S'inscrire | Disclaimer

   EN    FR    IT 

 










Légende :    VFR   VFR Marginal   IFR   IFR Intensif   IFR Très Intensif
Visi : 
Plafond : 
>= 8 km
>= 3000ft
5 à 8 km
1000 à 3000 ft
1500m à 5 km
500 à 1000 ft
800 à 1500m
200 à 500 ft
< 800m
< 200 ft
Symboles :   Orages  Brouillard  Fortes neiges  Fortes précipitations  Vent > 20 kt
SIGMETs :   Divers  Orages  Givrage  Turbulence  Onde Orograph.  Cendres Volcan.







- Altitude de l'aérodrome : 17 ft
- Code IATA : MPL
- Voir les cartes d'approche


LFMT - Montpellier Méditerranée

DERNIER METAR :
  • 221030Z AUTO 23003KT 160V270 CAVOK 23/08 Q1021 TEMPO 36010KT

METARs EXPIRÉS :
  • 221000Z AUTO 34006KT 290V030 CAVOK 22/08 Q1022 NOSIG
  • 220930Z AUTO 34008KT 300V050 CAVOK 22/09 Q1022 NOSIG
  • 220900Z AUTO 34010KT 300V030 CAVOK 22/09 Q1022 NOSIG
  • 220830Z AUTO 35007KT 320V040 CAVOK 21/08 Q1022 NOSIG
  • 220800Z AUTO 36008KT 330V050 CAVOK 20/08 Q1022 NOSIG

TAF TAF LFMT
Valide du 22 à 09h jusqu'au 23 à 09h UTC


220800Z 2209/2309 36010KT CAVOK
TEMPO 2212/2218 20010KT
BECMG 2218/2221 30006KT
ATIS : +33 4 67 13 11 70
Pas de NOTAMs connus pour ce terrain.



MET'MAP, la Météo Aéronautique d'un coup d'oeil ! - Copyright ORBIFLY Décembre 2007 - Disclaimer

ORBIFLY MET'MAP TEAM :

Programmation & Développement : Alexandra Zaïnal
Conception & Développement : Baudouin d'Aumeries
Co-Programmation & Développement : Marc-Olivier Méhu
Soutien technique & logistique : Manuel Goepfert

Contact : metmap@orbifly.com




SOURCES & CREDITS :

   NOAA